createdAt,value
2022-09-12T00:01:32.122Z,97953.96
2022-09-12T00:04:00.936Z,97957.61
2022-09-12T00:06:33.006Z,97953.42
2022-09-12T00:09:01.931Z,97950.33
2022-09-12T00:11:28.833Z,97949.65
2022-09-12T00:13:57.489Z,97946.34
2022-09-12T00:16:25.568Z,97946.02
2022-09-12T00:18:53.571Z,97943.43
2022-09-12T00:21:21.243Z,97944.14
2022-09-12T00:23:48.478Z,97942.46
2022-09-12T00:26:15.483Z,97938.44
2022-09-12T00:28:42.322Z,97939.44
2022-09-12T00:31:11.404Z,97934.33
2022-09-12T00:33:38.247Z,97929.32
2022-09-12T00:36:15.013Z,97929.27
2022-09-12T00:38:42.839Z,97932.00
2022-09-12T00:41:21.666Z,97927.98
2022-09-12T00:43:50.881Z,97926.32
2022-09-12T00:46:20.795Z,97925.16
2022-09-12T00:48:50.713Z,97922.42
2022-09-12T00:51:18.272Z,97925.08
2022-09-12T00:53:45.301Z,97920.77
2022-09-12T00:56:12.589Z,97919.34
2022-09-12T00:58:54.142Z,97915.48
2022-09-12T01:01:21.154Z,97915.86
2022-09-12T01:03:48.217Z,97916.26
2022-09-12T01:06:37.509Z,97916.71
2022-09-12T01:09:05.212Z,97912.39
2022-09-12T01:11:36.737Z,97911.33
2022-09-12T01:14:06.530Z,97909.13
2022-09-12T01:16:36.994Z,97906.53
2022-09-12T01:19:04.229Z,97912.68
2022-09-12T01:22:25.673Z,97911.27
2022-09-12T01:25:30.157Z,97912.26
2022-09-12T01:28:29.662Z,97910.61
2022-09-12T01:31:29.876Z,97914.20
2022-09-12T01:34:44.703Z,97915.31
2022-09-12T01:37:31.772Z,97912.40
2022-09-12T01:40:21.866Z,97909.08
2022-09-12T01:42:59.159Z,97911.20
2022-09-12T01:46:10.982Z,97912.87
2022-09-12T01:49:02.306Z,97915.98
2022-09-12T01:51:34.906Z,97915.99
2022-09-12T01:54:31.997Z,97913.52
2022-09-12T01:57:00.894Z,97913.91
2022-09-12T01:59:30.893Z,97913.87
2022-09-12T02:02:03.251Z,97914.55
2022-09-12T02:04:36.098Z,97916.77
2022-09-12T02:07:14.882Z,97912.17
2022-09-12T02:09:45.838Z,97911.30
2022-09-12T02:12:14.190Z,97906.41
2022-09-12T02:14:44.475Z,97907.63
2022-09-12T02:17:16.856Z,97906.48
2022-09-12T02:19:47.157Z,97907.42
2022-09-12T02:22:17.429Z,97908.46
2022-09-12T02:24:47.016Z,97907.22
2022-09-12T02:27:38.152Z,97907.83
2022-09-12T02:30:06.477Z,97909.83
2022-09-12T02:32:38.309Z,97912.11
2022-09-12T02:35:08.837Z,97912.23
2022-09-12T02:37:54.295Z,97907.42
2022-09-12T02:40:21.526Z,97912.23
2022-09-12T02:42:49.517Z,97908.84
2022-09-12T02:45:16.465Z,97906.55
2022-09-12T02:48:08.809Z,97910.81
2022-09-12T02:50:35.952Z,97902.80
2022-09-12T02:53:05.253Z,97907.30
2022-09-12T02:55:33.106Z,97907.47
2022-09-12T02:58:03.927Z,97904.39
2022-09-12T03:00:55.227Z,97904.23
2022-09-12T03:03:28.258Z,97905.87
2022-09-12T03:05:59.936Z,97908.02
2022-09-12T03:09:05.060Z,97908.35
2022-09-12T03:11:54.122Z,97904.15
2022-09-12T03:14:37.091Z,97900.53
2022-09-12T03:17:07.052Z,97901.58
2022-09-12T03:19:44.967Z,97902.61
2022-09-12T03:22:28.593Z,97903.94
2022-09-12T03:25:16.753Z,97900.47
2022-09-12T03:28:09.080Z,97898.62
2022-09-12T03:30:44.012Z,97902.20
2022-09-12T03:33:12.060Z,97902.55
2022-09-12T03:35:38.913Z,97901.71
2022-09-12T03:38:08.316Z,97902.61
2022-09-12T03:40:36.308Z,97902.34
2022-09-12T03:43:04.400Z,97900.77
2022-09-12T03:45:31.475Z,97901.30
2022-09-12T03:47:58.459Z,97896.56
2022-09-12T03:50:25.500Z,97894.14
2022-09-12T03:52:52.386Z,97895.54
2022-09-12T03:55:19.641Z,97890.33
2022-09-12T03:57:46.547Z,97887.49
2022-09-12T04:00:17.646Z,97893.85
2022-09-12T04:02:46.110Z,97892.89
2022-09-12T04:05:13.119Z,97896.41
2022-09-12T04:07:40.070Z,97893.21
2022-09-12T04:10:07.532Z,97890.53
2022-09-12T04:12:35.891Z,97888.25
2022-09-12T04:15:02.870Z,97888.48
2022-09-12T04:17:29.881Z,97888.48
2022-09-12T04:19:56.824Z,97890.14
2022-09-12T04:22:24.089Z,97888.02
2022-09-12T04:24:51.538Z,97887.73
2022-09-12T04:27:18.428Z,97884.13
2022-09-12T04:29:45.424Z,97886.06
2022-09-12T04:32:12.338Z,97884.58
2022-09-12T04:34:39.357Z,97887.77
2022-09-12T04:37:06.260Z,97889.58
2022-09-12T04:39:33.207Z,97886.34
2022-09-12T04:42:00.151Z,97886.92
2022-09-12T04:44:27.137Z,97883.95
2022-09-12T04:46:54.145Z,97885.05
2022-09-12T04:49:21.057Z,97886.38
2022-09-12T04:51:47.890Z,97885.95
2022-09-12T04:54:16.615Z,97884.49
2022-09-12T04:56:45.232Z,97882.92
2022-09-12T04:59:13.293Z,97887.87
2022-09-12T05:01:40.258Z,97883.79
2022-09-12T05:04:07.488Z,97889.89
2022-09-12T05:06:35.885Z,97893.08
2022-09-12T05:09:04.367Z,97890.96
2022-09-12T05:11:59.621Z,97888.80
2022-09-12T05:14:19.763Z,97889.23
2022-09-12T05:16:49.458Z,97892.95
2022-09-12T05:19:16.884Z,97896.63
2022-09-12T05:21:43.836Z,97894.25
2022-09-12T05:24:10.700Z,97892.85
2022-09-12T05:26:37.528Z,97891.06
2022-09-12T05:29:04.671Z,97895.94
2022-09-12T05:31:31.957Z,97895.48
2022-09-12T05:33:58.962Z,97895.89
2022-09-12T05:36:29.887Z,97893.45
2022-09-12T05:38:57.179Z,97894.02
2022-09-12T05:41:25.839Z,97891.75
2022-09-12T05:43:57.296Z,97890.66
2022-09-12T05:46:32.454Z,97893.56
2022-09-12T05:49:03.377Z,97892.33
2022-09-12T05:51:33.082Z,97895.20
2022-09-12T05:54:01.451Z,97891.41
2022-09-12T05:56:29.911Z,97891.56
2022-09-12T05:59:02.145Z,97894.11
2022-09-12T06:01:30.379Z,97893.09
2022-09-12T06:04:01.121Z,97897.80
2022-09-12T06:06:29.151Z,97896.95
2022-09-12T06:09:00.397Z,97896.58
2022-09-12T06:11:28.978Z,97892.96
2022-09-12T06:13:57.179Z,97889.73
2022-09-12T06:16:29.189Z,97891.94
2022-09-12T06:19:07.458Z,97889.74
2022-09-12T06:21:38.016Z,97889.61
2022-09-12T06:24:05.238Z,97890.29
2022-09-12T06:26:32.152Z,97892.23
2022-09-12T06:29:00.901Z,97888.17
2022-09-12T06:31:30.266Z,97887.73
2022-09-12T06:33:58.360Z,97888.14
2022-09-12T06:36:27.381Z,97887.41
2022-09-12T06:38:58.691Z,97882.31
2022-09-12T06:41:26.045Z,97885.64
2022-09-12T06:43:53.568Z,97887.95
2022-09-12T06:46:21.250Z,97886.17
2022-09-12T06:48:48.774Z,97889.64
2022-09-12T06:51:17.621Z,97886.16
2022-09-12T06:53:45.689Z,97888.34
2022-09-12T06:56:19.354Z,97887.02
2022-09-12T06:58:47.510Z,97893.33
2022-09-12T07:01:20.753Z,97894.27
2022-09-12T07:03:52.918Z,97895.52
2022-09-12T07:06:21.907Z,97895.19
2022-09-12T07:08:48.900Z,97900.52
2022-09-12T07:11:23.762Z,97901.87
2022-09-12T07:13:52.706Z,97905.23
2022-09-12T07:16:20.371Z,97907.06
2022-09-12T07:18:57.867Z,97906.36
2022-09-12T07:21:25.184Z,97909.64
2022-09-12T07:23:52.131Z,97909.31
2022-09-12T07:26:19.180Z,97909.14
2022-09-12T07:28:46.225Z,97912.23
2022-09-12T07:31:17.849Z,97910.86
2022-09-12T07:33:44.943Z,97913.55
2022-09-12T07:36:14.018Z,97911.50
2022-09-12T07:38:41.311Z,97911.27
2022-09-12T07:41:23.411Z,97917.61
2022-09-12T07:43:54.512Z,97920.30
2022-09-12T07:46:22.561Z,97920.55
2022-09-12T07:48:51.414Z,97919.59
2022-09-12T07:51:19.239Z,97919.69
2022-09-12T07:53:46.689Z,97923.73
2022-09-12T07:56:13.871Z,97930.32
2022-09-12T07:58:41.999Z,97929.20
2022-09-12T08:01:14.180Z,97924.34
2022-09-12T08:03:42.341Z,97927.30
2022-09-12T08:06:11.158Z,97926.11
2022-09-12T08:08:38.869Z,97924.54
2022-09-12T08:11:08.275Z,97931.97
2022-09-12T08:13:36.224Z,97928.58
2022-09-12T08:16:06.061Z,97930.61
2022-09-12T08:18:33.143Z,97930.83
2022-09-12T08:21:01.010Z,97926.98
2022-09-12T08:23:28.927Z,97936.67
2022-09-12T08:25:57.766Z,97935.37
2022-09-12T08:28:25.837Z,97930.22
2022-09-12T08:30:53.944Z,97934.06
2022-09-12T08:33:21.101Z,97931.23
2022-09-12T08:35:48.108Z,97927.77
2022-09-12T08:38:15.063Z,97935.88
2022-09-12T08:40:53.568Z,97935.45
2022-09-12T08:43:36.264Z,97931.59
2022-09-12T08:46:09.761Z,97933.17
2022-09-12T08:48:36.728Z,97929.13
2022-09-12T08:51:05.288Z,97932.55
2022-09-12T08:53:32.083Z,97928.98
2022-09-12T08:55:59.915Z,97931.42
2022-09-12T08:58:28.663Z,97932.58
2022-09-12T09:01:07.446Z,97927.11
2022-09-12T09:03:40.891Z,97928.80
2022-09-12T09:06:18.452Z,97933.35
2022-09-12T09:09:05.226Z,97938.59
2022-09-12T09:11:48.289Z,97933.23
2022-09-12T09:14:49.192Z,97933.95
2022-09-12T09:17:38.005Z,97939.23
2022-09-12T09:20:08.062Z,97942.15
2022-09-12T09:22:44.745Z,97942.85
2022-09-12T09:25:22.599Z,97941.36
2022-09-12T09:27:59.414Z,97942.31
2022-09-12T09:30:26.433Z,97941.39
2022-09-12T09:32:58.853Z,97945.45
2022-09-12T09:35:38.180Z,97942.39
2022-09-12T09:38:23.676Z,97947.90
2022-09-12T09:41:09.334Z,97939.45
2022-09-12T09:43:36.278Z,97940.85
2022-09-12T09:46:03.509Z,97940.19
2022-09-12T09:48:32.320Z,97942.74
2022-09-12T09:51:00.801Z,97946.79
2022-09-12T09:54:01.570Z,97947.18
2022-09-12T09:56:42.669Z,97949.23
2022-09-12T09:59:10.277Z,97948.98
2022-09-12T10:01:38.305Z,97951.42
2022-09-12T10:04:05.218Z,97959.36
2022-09-12T10:06:33.216Z,97957.59
2022-09-12T10:09:18.959Z,97959.71
2022-09-12T10:11:47.685Z,97959.89
2022-09-12T10:14:31.365Z,97960.59
2022-09-12T10:16:58.919Z,97967.09
2022-09-12T10:19:37.201Z,97965.71
2022-09-12T10:22:04.795Z,97970.67
2022-09-12T10:24:41.316Z,97967.90
2022-09-12T10:27:23.879Z,97974.64
2022-09-12T10:30:00.980Z,97975.96
2022-09-12T10:32:31.006Z,97974.52
2022-09-12T10:35:02.838Z,97973.96
2022-09-12T10:37:35.312Z,97979.70
2022-09-12T10:40:03.808Z,97974.57
2022-09-12T10:42:47.478Z,97986.00
2022-09-12T10:45:32.098Z,97982.45
2022-09-12T10:48:05.449Z,97983.59
2022-09-12T10:50:41.409Z,97986.17
2022-09-12T10:53:23.187Z,97989.52
2022-09-12T10:56:02.125Z,97990.36
2022-09-12T10:58:41.210Z,97995.00
2022-09-12T11:01:34.493Z,97996.15
2022-09-12T11:04:30.590Z,97994.73
2022-09-12T11:07:32.034Z,97999.58
2022-09-12T11:10:22.238Z,98001.10
2022-09-12T11:13:01.925Z,98003.41
2022-09-12T11:15:34.869Z,98005.75
2022-09-12T11:18:20.643Z,98008.79
2022-09-12T11:21:04.594Z,98005.00
2022-09-12T11:23:31.419Z,98010.30
2022-09-12T11:26:21.132Z,98012.02
2022-09-12T11:28:58.289Z,98016.19
2022-09-12T11:31:42.032Z,98015.16
2022-09-12T11:34:09.894Z,98021.75
2022-09-12T11:36:39.909Z,98022.77
2022-09-12T11:39:17.501Z,98024.29
2022-09-12T11:41:48.506Z,98025.49
2022-09-12T11:44:23.581Z,98030.67
2022-09-12T11:46:52.095Z,98029.45
2022-09-12T11:49:40.534Z,98030.65
2022-09-12T11:52:21.069Z,98028.66
2022-09-12T11:54:58.873Z,98034.36
2022-09-12T11:57:25.834Z,98035.42
2022-09-12T11:59:57.893Z,98034.05
2022-09-12T12:02:31.791Z,98036.41
2022-09-12T12:05:16.760Z,98039.23
2022-09-12T12:07:54.351Z,98039.48
2022-09-12T12:10:33.075Z,98040.13
2022-09-12T12:13:02.131Z,98041.69
2022-09-12T12:15:29.032Z,98043.48
2022-09-12T12:18:05.997Z,98043.14
2022-09-12T12:20:33.015Z,98046.94
2022-09-12T12:23:00.087Z,98047.79
2022-09-12T12:25:40.193Z,98053.15
2022-09-12T12:28:07.288Z,98051.38
2022-09-12T12:30:41.060Z,98054.19
2022-09-12T12:33:11.034Z,98055.45
2022-09-12T12:35:41.865Z,98058.09
2022-09-12T12:38:33.578Z,98057.69
2022-09-12T12:41:19.074Z,98059.64
2022-09-12T12:43:54.598Z,98059.34
2022-09-12T12:46:23.025Z,98058.64
2022-09-12T12:48:57.751Z,98059.14
2022-09-12T12:51:50.372Z,98063.68
2022-09-12T12:54:42.358Z,98069.15
2022-09-12T12:57:19.894Z,98070.85
2022-09-12T13:00:01.946Z,98070.08
2022-09-12T13:02:37.486Z,98073.42
2022-09-12T13:05:06.823Z,98072.95
2022-09-12T13:07:36.620Z,98077.95
2022-09-12T13:10:04.912Z,98077.21
2022-09-12T13:12:37.549Z,98077.75
2022-09-12T13:15:25.337Z,98081.40
2022-09-12T13:17:52.350Z,98084.25
2022-09-12T13:20:28.461Z,98089.34
2022-09-12T13:22:56.327Z,98087.30
2022-09-12T13:25:36.188Z,98083.23
2022-09-12T13:28:12.302Z,98088.94
2022-09-12T13:30:43.752Z,98091.83
2022-09-12T13:33:22.365Z,98098.02
2022-09-12T13:35:58.398Z,98100.81
2022-09-12T13:38:47.453Z,98103.15
2022-09-12T13:41:28.469Z,98101.48
2022-09-12T13:43:55.297Z,98101.95
2022-09-12T13:46:30.350Z,98109.06
2022-09-12T13:49:01.896Z,98111.10
2022-09-12T13:51:30.680Z,98109.79
2022-09-12T13:54:00.295Z,98115.16
2022-09-12T13:56:27.136Z,98114.95
2022-09-12T13:58:58.333Z,98118.15
2022-09-12T14:01:37.346Z,98116.94
2022-09-12T14:04:43.891Z,98120.88
2022-09-12T14:07:19.074Z,98125.55
2022-09-12T14:09:49.285Z,98125.64
2022-09-12T14:12:25.505Z,98128.84
2022-09-12T14:14:52.803Z,98129.80
2022-09-12T14:17:27.589Z,98131.85
2022-09-12T14:19:54.632Z,98135.55
2022-09-12T14:22:21.742Z,98131.65
2022-09-12T14:24:50.673Z,98132.27
2022-09-12T14:27:24.654Z,98132.13
2022-09-12T14:29:54.773Z,98137.52
2022-09-12T14:32:24.819Z,98137.82
2022-09-12T14:35:10.738Z,98137.64
2022-09-12T14:37:39.092Z,98138.46
2022-09-12T14:40:16.941Z,98142.79
2022-09-12T14:42:45.096Z,98144.70
2022-09-12T14:45:31.359Z,98147.19
2022-09-12T14:47:58.832Z,98143.73
2022-09-12T14:50:27.887Z,98147.66
2022-09-12T14:53:21.496Z,98149.73
2022-09-12T14:55:53.940Z,98148.70
2022-09-12T14:58:20.906Z,98149.47
2022-09-12T15:00:58.025Z,98152.86
2022-09-12T15:03:50.019Z,98153.80
2022-09-12T15:06:23.510Z,98157.42
2022-09-12T15:08:50.786Z,98156.31
2022-09-12T15:11:17.809Z,98157.88
2022-09-12T15:13:45.001Z,98161.02
2022-09-12T15:16:12.291Z,98161.42
2022-09-12T15:18:39.447Z,98164.27
2022-09-12T15:21:10.821Z,98168.80
2022-09-12T15:23:51.916Z,98165.23
2022-09-12T15:26:20.676Z,98164.19
2022-09-12T15:28:47.673Z,98161.42
2022-09-12T15:31:29.179Z,98160.09
2022-09-12T15:33:57.323Z,98162.17
2022-09-12T15:36:25.047Z,98164.31
2022-09-12T15:38:52.848Z,98166.84
2022-09-12T15:41:22.258Z,98164.92
2022-09-12T15:43:49.908Z,98164.13
2022-09-12T15:46:18.104Z,98162.24
2022-09-12T15:48:45.438Z,98163.98
2022-09-12T15:51:17.658Z,98165.17
2022-09-12T15:53:44.818Z,98166.60
2022-09-12T15:56:12.381Z,98167.64
2022-09-12T15:58:54.592Z,98165.39
2022-09-12T16:01:24.547Z,98166.09
2022-09-12T16:03:51.962Z,98166.02
2022-09-12T16:06:19.002Z,98170.96
2022-09-12T16:08:46.013Z,98170.63
2022-09-12T16:11:21.149Z,98173.40
2022-09-12T16:13:48.960Z,98170.05
2022-09-12T16:16:16.096Z,98172.62
2022-09-12T16:18:43.231Z,98174.16
2022-09-12T16:21:14.871Z,98173.92
2022-09-12T16:23:46.391Z,98176.59
2022-09-12T16:26:13.406Z,98176.54
2022-09-12T16:28:40.659Z,98182.58
2022-09-12T16:31:08.931Z,98183.46
2022-09-12T16:33:37.542Z,98185.82
2022-09-12T16:36:06.448Z,98186.46
2022-09-12T16:38:34.039Z,98192.02
2022-09-12T16:41:05.417Z,98192.69
2022-09-12T16:43:33.389Z,98196.52
2022-09-12T16:46:03.205Z,98196.52
2022-09-12T16:48:30.657Z,98200.88
2022-09-12T16:51:02.075Z,98198.03
2022-09-12T16:53:33.317Z,98203.21
2022-09-12T16:56:00.397Z,98201.89
2022-09-12T16:58:27.873Z,98205.30
2022-09-12T17:01:22.618Z,98208.83
2022-09-12T17:03:53.733Z,98211.09
2022-09-12T17:06:20.814Z,98209.47
2022-09-12T17:08:50.071Z,98214.33
2022-09-12T17:11:19.086Z,98212.96
2022-09-12T17:14:04.477Z,98215.65
2022-09-12T17:16:34.340Z,98219.19
2022-09-12T17:19:01.273Z,98222.80
2022-09-12T17:21:28.416Z,98218.16
2022-09-12T17:23:55.566Z,98223.11
2022-09-12T17:26:22.610Z,98221.69
2022-09-12T17:28:49.869Z,98222.15
2022-09-12T17:31:17.505Z,98226.15
2022-09-12T17:33:44.678Z,98226.16
2022-09-12T17:36:15.280Z,98222.27
2022-09-12T17:38:43.279Z,98225.30
2022-09-12T17:41:16.126Z,98232.73
2022-09-12T17:43:44.644Z,98229.05
2022-09-12T17:46:11.710Z,98230.16
2022-09-12T17:48:40.680Z,98233.98
2022-09-12T17:51:15.194Z,98233.15
2022-09-12T17:53:42.675Z,98231.48
2022-09-12T17:56:10.239Z,98234.02
2022-09-12T17:58:37.165Z,98234.15
2022-09-12T18:01:30.294Z,98237.98
2022-09-12T18:03:58.090Z,98240.63
2022-09-12T18:06:25.034Z,98236.86
2022-09-12T18:08:51.923Z,98238.33
2022-09-12T18:11:19.032Z,98235.57
2022-09-12T18:13:46.046Z,98236.30
2022-09-12T18:16:13.570Z,98237.77
2022-09-12T18:18:40.605Z,98239.29
2022-09-12T18:21:08.791Z,98241.41
2022-09-12T18:23:35.930Z,98240.89
2022-09-12T18:26:05.762Z,98242.20
2022-09-12T18:28:33.844Z,98245.66
2022-09-12T18:31:00.836Z,98250.67
2022-09-12T18:33:27.841Z,98251.07
2022-09-12T18:35:54.804Z,98248.89
2022-09-12T18:38:21.804Z,98243.18
2022-09-12T18:40:49.531Z,98244.30
2022-09-12T18:43:16.514Z,98242.84
2022-09-12T18:45:43.446Z,98246.70
2022-09-12T18:48:10.438Z,98246.75
2022-09-12T18:50:37.342Z,98248.26
2022-09-12T18:53:04.268Z,98253.88
2022-09-12T18:55:32.595Z,98258.04
2022-09-12T18:57:59.580Z,98259.88
2022-09-12T19:00:27.154Z,98258.49
2022-09-12T19:02:54.185Z,98257.75
2022-09-12T19:05:21.135Z,98260.77
2022-09-12T19:07:48.196Z,98255.34
2022-09-12T19:10:15.234Z,98261.14
2022-09-12T19:12:42.168Z,98255.16
2022-09-12T19:15:10.038Z,98256.80
2022-09-12T19:17:37.086Z,98259.61
2022-09-12T19:20:04.888Z,98260.36
2022-09-12T19:22:32.521Z,98256.36
2022-09-12T19:24:59.694Z,98255.90
2022-09-12T19:27:26.606Z,98256.27
2022-09-12T19:29:53.757Z,98254.70
2022-09-12T19:32:20.905Z,98255.39
2022-09-12T19:34:48.052Z,98251.08
2022-09-12T19:37:15.544Z,98248.02
2022-09-12T19:39:44.558Z,98246.63
2022-09-12T19:42:12.175Z,98251.21
2022-09-12T19:44:39.623Z,98250.30
2022-09-12T19:47:06.668Z,98251.04
2022-09-12T19:49:33.718Z,98251.45
2022-09-12T19:52:00.878Z,98249.14
2022-09-12T19:54:27.956Z,98246.75
2022-09-12T19:56:55.381Z,98246.67
2022-09-12T19:59:23.338Z,98247.77
2022-09-12T20:01:50.336Z,98246.57
2022-09-12T20:04:17.437Z,98249.16
2022-09-12T20:06:44.482Z,98250.77
2022-09-12T20:09:11.552Z,98250.15
2022-09-12T22:21:07.203Z,98254.90
2022-09-12T22:23:54.015Z,98258.46
2022-09-12T22:26:21.258Z,98256.70
2022-09-12T22:28:48.537Z,98258.95
2022-09-12T22:31:15.934Z,98262.42
2022-09-12T22:33:42.917Z,98262.27
2022-09-12T22:36:10.173Z,98266.27
2022-09-12T22:38:37.344Z,98262.16
2022-09-12T22:41:05.741Z,98262.59
2022-09-12T22:43:33.589Z,98262.83
2022-09-12T22:46:00.818Z,98259.04
2022-09-12T22:48:27.670Z,98262.80
2022-09-12T22:50:54.396Z,98263.20
2022-09-12T22:53:21.271Z,98268.11
2022-09-12T22:55:48.389Z,98264.91
2022-09-12T22:58:15.313Z,98265.66
2022-09-12T23:00:49.833Z,98263.76
2022-09-12T23:03:17.745Z,98266.08
2022-09-12T23:05:47.023Z,98265.65
2022-09-12T23:08:15.421Z,98264.97
2022-09-12T23:10:43.570Z,98260.95
2022-09-12T23:13:10.353Z,98261.59
2022-09-12T23:15:37.666Z,98257.76
2022-09-12T23:18:05.233Z,98262.05
2022-09-12T23:20:32.290Z,98260.84
2022-09-12T23:22:59.218Z,98258.61
2022-09-12T23:25:25.951Z,98256.45
2022-09-12T23:27:53.516Z,98258.02
2022-09-12T23:30:21.075Z,98256.70
2022-09-12T23:32:48.656Z,98256.29
2022-09-12T23:35:17.907Z,98255.47
2022-09-12T23:37:46.109Z,98254.98
2022-09-12T23:40:13.093Z,98255.52
2022-09-12T23:42:41.112Z,98254.81
2022-09-12T23:45:09.528Z,98252.71
2022-09-12T23:47:37.572Z,98253.26
2022-09-12T23:50:04.970Z,98251.16
2022-09-12T23:52:31.842Z,98250.30
2022-09-12T23:54:58.924Z,98249.70
2022-09-12T23:57:25.886Z,98249.04
2022-09-12T23:59:53.221Z,98253.97
